createdAt,value
2023-04-21T00:01:44.239Z,415.02
2023-04-21T00:06:56.475Z,415.62
2023-04-21T00:12:14.412Z,416.42
2023-04-21T00:17:24.636Z,417.86
2023-04-21T00:22:36.442Z,417.31
2023-04-21T00:27:44.095Z,418.36
2023-04-21T00:32:51.649Z,419.16
2023-04-21T00:37:59.185Z,419.52
2023-04-21T00:43:06.621Z,417.82
2023-04-21T00:48:14.287Z,419.08
2023-04-21T00:53:22.063Z,420.29
2023-04-21T00:58:29.653Z,419.44
2023-04-21T01:03:52.575Z,419.39
2023-04-21T01:09:00.219Z,418.24
2023-04-21T01:14:12.763Z,418.94
2023-04-21T01:19:21.503Z,418.60
2023-04-21T01:24:32.307Z,418.25
2023-04-21T01:29:40.309Z,419.15
2023-04-21T01:34:49.981Z,418.59
2023-04-21T01:39:57.494Z,418.52
2023-04-21T01:45:05.193Z,417.95
2023-04-21T01:50:12.718Z,419.16
2023-04-21T01:55:24.043Z,418.91
2023-04-21T02:00:31.695Z,418.89
2023-04-21T02:05:39.073Z,419.56
2023-04-21T02:10:48.257Z,418.89
2023-04-21T02:16:09.780Z,419.51
2023-04-21T02:21:03.056Z,419.88
2023-04-21T02:26:10.482Z,419.28
2023-04-21T02:31:17.898Z,419.63
2023-04-21T02:36:25.329Z,420.70
2023-04-21T02:41:32.676Z,420.87
2023-04-21T02:46:40.012Z,419.67
2023-04-21T02:51:47.269Z,420.09
2023-04-21T02:56:54.588Z,418.78
2023-04-21T03:02:01.978Z,417.95
2023-04-21T03:07:09.387Z,418.03
2023-04-21T03:12:16.808Z,417.54
2023-04-21T03:17:24.477Z,417.77
2023-04-21T03:22:32.080Z,417.60
2023-04-21T03:27:39.625Z,416.61
2023-04-21T03:32:47.306Z,415.86
2023-04-21T03:37:54.763Z,416.60
2023-04-21T03:43:02.121Z,416.61
2023-04-21T03:48:09.679Z,416.09
2023-04-21T03:53:17.068Z,415.77
2023-04-21T03:58:24.469Z,416.00
2023-04-21T04:03:31.862Z,416.28
2023-04-21T04:08:39.039Z,416.52
2023-04-21T04:13:46.348Z,417.34
2023-04-21T04:18:53.774Z,417.62
2023-04-21T04:24:01.295Z,417.89
2023-04-21T04:29:08.958Z,418.18
2023-04-21T04:34:16.548Z,418.35
2023-04-21T04:39:27.401Z,418.60
2023-04-21T04:44:32.265Z,419.51
2023-04-21T04:49:39.681Z,419.30
2023-04-21T04:54:47.085Z,419.07
2023-04-21T04:59:54.480Z,419.90
2023-04-21T05:05:01.766Z,419.37
2023-04-21T05:10:08.949Z,419.77
2023-04-21T05:15:16.295Z,419.71
2023-04-21T05:20:23.587Z,419.42
2023-04-21T05:25:30.817Z,419.13
2023-04-21T05:30:38.087Z,419.14
2023-04-21T05:35:45.331Z,419.72
2023-04-21T05:40:52.509Z,420.24
2023-04-21T05:45:59.781Z,420.77
2023-04-21T05:51:07.007Z,421.34
2023-04-21T05:56:14.376Z,421.16
2023-04-21T06:01:21.855Z,420.79
2023-04-21T06:06:29.261Z,420.57
2023-04-21T06:11:36.720Z,420.28
2023-04-21T06:16:44.423Z,420.25
2023-04-21T06:21:51.668Z,419.93
2023-04-21T06:26:59.063Z,419.43
2023-04-21T06:32:06.621Z,419.30
2023-04-21T06:37:13.851Z,420.61
2023-04-21T06:42:21.248Z,420.26
2023-04-21T06:47:28.684Z,421.02
2023-04-21T06:52:35.866Z,421.47
2023-04-21T06:57:43.122Z,422.12
2023-04-21T07:02:50.589Z,422.44
2023-04-21T07:07:57.783Z,423.38
2023-04-21T07:13:05.112Z,424.35
2023-04-21T07:18:12.470Z,424.06
2023-04-21T07:23:19.660Z,425.22
2023-04-21T07:28:26.935Z,425.11
2023-04-21T07:33:34.279Z,425.30
2023-04-21T07:38:41.491Z,425.90
2023-04-21T07:43:48.764Z,426.87
2023-04-21T07:48:56.014Z,426.64
2023-04-21T07:54:03.419Z,425.62
2023-04-21T07:59:10.829Z,426.29
2023-04-21T08:04:18.784Z,426.56
2023-04-21T08:09:25.960Z,427.12
2023-04-21T08:14:33.573Z,426.82
2023-04-21T08:19:41.128Z,427.06
2023-04-21T08:24:48.533Z,427.45
2023-04-21T08:29:56.152Z,427.41
2023-04-21T08:35:03.852Z,427.20
2023-04-21T08:40:11.296Z,428.14
2023-04-21T08:45:19.027Z,428.00
2023-04-21T08:50:26.617Z,428.26
2023-04-21T08:55:43.154Z,428.09
2023-04-21T09:00:50.670Z,427.40
2023-04-21T09:05:58.541Z,427.71
2023-04-21T09:11:05.715Z,428.30
2023-04-21T09:16:13.155Z,429.21
2023-04-21T09:21:20.933Z,429.46
2023-04-21T09:26:45.950Z,429.92
2023-04-21T09:31:41.146Z,429.99
2023-04-21T09:36:48.531Z,429.89
2023-04-21T09:42:00.676Z,429.94
2023-04-21T09:47:08.268Z,430.04
2023-04-21T09:52:19.046Z,430.07
2023-04-21T09:57:25.837Z,429.73
2023-04-21T10:02:33.376Z,429.92
2023-04-21T10:07:40.849Z,430.62
2023-04-21T10:12:48.167Z,431.22
2023-04-21T10:17:55.637Z,431.60
2023-04-21T10:23:02.981Z,431.83
2023-04-21T10:28:10.350Z,432.82
2023-04-21T10:33:17.691Z,433.31
2023-04-21T10:38:25.054Z,433.38
2023-04-21T10:43:32.323Z,434.14
2023-04-21T10:48:39.713Z,433.69
2023-04-21T10:53:47.324Z,434.38
2023-04-21T10:58:54.612Z,434.48
2023-04-21T11:04:02.045Z,435.02
2023-04-21T11:09:09.363Z,435.71
2023-04-21T11:14:16.275Z,435.84
2023-04-21T11:19:23.609Z,436.62
2023-04-21T11:24:30.952Z,437.44
2023-04-21T11:29:38.136Z,437.32
2023-04-21T11:34:45.319Z,437.54
2023-04-21T11:39:52.511Z,438.22
2023-04-21T11:44:59.663Z,437.52
2023-04-21T11:50:06.903Z,437.92
2023-04-21T11:55:14.183Z,438.24
2023-04-21T12:00:21.323Z,438.73
2023-04-21T12:05:28.544Z,439.39
2023-04-21T12:10:35.853Z,438.93
2023-04-21T12:15:43.090Z,439.54
2023-04-21T12:20:50.405Z,439.43
2023-04-21T12:25:57.733Z,439.45
2023-04-21T12:31:05.254Z,438.73
2023-04-21T12:36:12.684Z,439.37
2023-04-21T12:41:20.258Z,439.92
2023-04-21T12:46:27.625Z,440.25
2023-04-21T12:51:34.736Z,440.25
2023-04-21T12:56:42.247Z,441.43
2023-04-21T13:01:49.684Z,441.47
2023-04-21T13:06:57.089Z,441.57
2023-04-21T13:12:04.781Z,441.34
2023-04-21T13:17:11.853Z,440.49
2023-04-21T13:22:19.178Z,440.49
2023-04-21T13:27:26.553Z,442.38
2023-04-21T13:32:33.997Z,442.29
2023-04-21T13:37:41.363Z,441.36
2023-04-21T13:42:48.772Z,441.49
2023-04-21T13:47:55.921Z,441.68
2023-04-21T13:53:03.188Z,441.86
2023-04-21T13:58:10.465Z,441.39
2023-04-21T14:03:17.823Z,442.18
2023-04-21T14:08:25.035Z,442.00
2023-04-21T14:13:37.845Z,442.21
2023-04-21T14:18:39.594Z,442.72
2023-04-21T14:23:46.858Z,443.30
2023-04-21T14:28:54.437Z,443.46
2023-04-21T14:34:01.667Z,443.64
2023-04-21T14:39:08.917Z,444.12
2023-04-21T14:44:16.451Z,444.10
2023-04-21T14:49:23.719Z,444.43
2023-04-21T14:54:30.960Z,444.27
2023-04-21T14:59:38.245Z,443.59
2023-04-21T15:04:45.411Z,444.76
2023-04-21T15:09:52.706Z,444.06
2023-04-21T15:15:00.049Z,444.47
2023-04-21T15:20:07.313Z,444.45
2023-04-21T15:25:14.587Z,444.13
2023-04-21T15:30:21.887Z,443.69
2023-04-21T15:35:29.053Z,444.39
2023-04-21T15:40:41.181Z,444.01
2023-04-21T15:45:43.577Z,443.80
2023-04-21T15:50:50.723Z,445.71
2023-04-21T15:55:57.888Z,444.78
2023-04-21T16:01:05.216Z,444.67
2023-04-21T16:06:12.624Z,443.97
2023-04-21T16:11:19.635Z,445.34
2023-04-21T16:16:26.889Z,443.51
2023-04-21T16:21:33.984Z,444.06
2023-04-21T16:26:41.314Z,443.53
2023-04-21T16:31:48.702Z,443.42
2023-04-21T16:36:55.866Z,442.44
2023-04-21T16:42:03.159Z,442.31
2023-04-21T16:47:10.394Z,441.98
2023-04-21T16:52:17.509Z,441.90
2023-04-21T16:57:24.663Z,442.51
2023-04-21T17:02:32.054Z,441.19
2023-04-21T17:07:39.060Z,440.58
2023-04-21T17:12:46.268Z,440.21
2023-04-21T17:17:53.502Z,439.25
2023-04-21T17:23:00.718Z,438.21
2023-04-21T17:28:07.903Z,438.08
2023-04-21T17:33:17.146Z,437.99
2023-04-21T17:38:22.264Z,437.87
2023-04-21T17:43:29.513Z,437.12
2023-04-21T17:48:36.857Z,436.79
2023-04-21T17:53:44.000Z,436.51
2023-04-21T17:58:52.544Z,436.29
2023-04-21T18:04:01.327Z,436.74
2023-04-21T18:09:07.507Z,436.65
2023-04-21T18:14:14.676Z,437.27
2023-04-21T18:19:21.882Z,437.29
2023-04-21T18:24:29.047Z,436.89
2023-04-21T18:29:36.515Z,436.31
2023-04-21T18:34:43.867Z,436.14
2023-04-21T18:39:51.139Z,435.54
2023-04-21T18:44:59.496Z,435.06
2023-04-21T18:50:06.467Z,434.48
2023-04-21T18:55:13.950Z,434.19
2023-04-21T19:00:21.372Z,433.74
2023-04-21T19:05:30.489Z,433.04
2023-04-21T19:10:36.599Z,433.37
2023-04-21T19:15:43.990Z,432.95
2023-04-21T19:20:51.495Z,433.50
2023-04-21T19:25:59.120Z,433.55
2023-04-21T19:31:06.863Z,432.84
2023-04-21T19:36:14.476Z,433.20
2023-04-21T19:41:22.173Z,432.97
2023-04-21T19:46:29.950Z,433.05
2023-04-21T19:51:37.295Z,432.70
2023-04-21T19:56:44.848Z,432.73
2023-04-21T20:01:52.534Z,432.68
2023-04-21T20:07:00.575Z,432.63
2023-04-21T20:12:08.071Z,432.52
2023-04-21T20:17:15.713Z,432.22
2023-04-21T20:22:23.160Z,432.11
2023-04-21T20:27:30.379Z,431.90
2023-04-21T20:32:37.712Z,431.67
2023-04-21T20:37:45.246Z,432.43
2023-04-21T20:42:52.663Z,432.20
2023-04-21T20:47:59.919Z,433.05
2023-04-21T20:53:07.168Z,432.45
2023-04-21T20:58:14.355Z,431.82
2023-04-21T21:03:21.828Z,432.10
2023-04-21T21:08:28.925Z,432.10
2023-04-21T21:13:36.097Z,432.04
2023-04-21T21:18:43.289Z,431.60
2023-04-21T21:23:50.601Z,430.92
2023-04-21T21:28:57.738Z,430.99
2023-04-21T21:34:05.031Z,431.19
2023-04-21T21:39:12.364Z,430.87
2023-04-21T21:44:19.614Z,430.18
2023-04-21T21:49:26.955Z,430.15
2023-04-21T21:54:34.251Z,429.94
2023-04-21T21:59:41.729Z,430.49
2023-04-21T22:04:48.710Z,430.54
2023-04-21T22:09:55.965Z,430.50
2023-04-21T22:15:03.126Z,430.32
2023-04-21T22:20:10.411Z,429.86
2023-04-21T22:25:17.723Z,429.83
2023-04-21T22:30:24.962Z,430.22
2023-04-21T22:35:32.170Z,430.30
2023-04-21T22:40:39.407Z,430.16
2023-04-21T22:45:46.650Z,429.95
2023-04-21T22:50:53.818Z,429.49
2023-04-21T22:56:01.038Z,429.00
2023-04-21T23:01:08.335Z,429.50
2023-04-21T23:06:15.470Z,429.42
2023-04-21T23:11:22.670Z,429.79
2023-04-21T23:16:29.868Z,429.59
2023-04-21T23:21:37.130Z,429.74
2023-04-21T23:26:44.360Z,430.02
2023-04-21T23:31:51.626Z,430.52
2023-04-21T23:36:58.789Z,430.50
2023-04-21T23:42:06.016Z,430.16
2023-04-21T23:47:13.162Z,430.74
2023-04-21T23:52:20.427Z,430.27
2023-04-21T23:57:27.661Z,431.11
